Time,TemperatureF,DewpointF,PressureIn,WindDirection,WindDirectionDegrees,WindSpeedMPH,WindSpeedGustMPH,Humidity,HourlyPrecipIn,Conditions,Clouds,dailyrainin,SoftwareType,DateUTC
2013-06-01 00:02:00,61.0,-99.9,29.80,SSE,160,12.0,22.0,-999,-99.99,,,-99.99,,2013-06-01 05:02:00,
2013-06-01 00:12:00,61.0,-99.9,29.80,SSE,160,12.0,22.0,-999,-99.99,,,-99.99,,2013-06-01 05:12:00,
2013-06-01 00:22:00,61.0,61.0,29.77,SSE,150,13.0,-999.0,100,-99.99,,,-99.99,,2013-06-01 05:22:00,
2013-06-01 00:32:00,61.0,61.0,29.77,SSE,150,13.0,-999.0,100,-99.99,,,-99.99,,2013-06-01 05:32:00,
2013-06-01 00:43:00,61.0,61.0,29.77,SSE,150,13.0,-999.0,100,-99.99,,,-99.99,,2013-06-01 05:43:00,
2013-06-01 00:52:00,61.0,61.0,29.78,South,190,14.0,-999.0,100,-99.99,,,-99.99,,2013-06-01 05:52:00,
2013-06-01 01:01:00,61.0,61.0,29.78,South,190,14.0,-999.0,100,-99.99,,,-99.99,,2013-06-01 06:01:00,
2013-06-01 01:12:00,61.0,61.0,29.78,South,190,14.0,-999.0,100,-99.99,,,-99.99,,2013-06-01 06:12:00,
2013-06-01 01:22:00,61.0,-99.9,29.79,SSW,210,10.0,-999.0,-999,-99.99,,,-99.99,,2013-06-01 06:22:00,
2013-06-01 01:32:00,61.0,-99.9,29.77,SSW,200,9.0,-999.0,-999,-99.99,,,-99.99,,2013-06-01 06:32:00,
2013-06-01 01:42:00,61.0,-99.9,29.77,SSW,210,9.0,-999.0,-999,-99.99,,,-99.99,,2013-06-01 06:42:00,
2013-06-01 01:52:00,61.0,-99.9,29.77,SSW,210,9.0,-999.0,-999,-99.99,,,-99.99,,2013-06-01 06:52:00,
2013-06-01 02:01:00,61.0,-99.9,29.77,SSW,210,9.0,-999.0,-999,-99.99,,,-99.99,,2013-06-01 07:01:00,
2013-06-01 02:11:00,61.0,-99.9,29.77,SSW,210,9.0,-999.0,-999,-99.99,,,-99.99,,2013-06-01 07:11:00,
2013-06-01 02:22:00,61.0,-99.9,29.77,South,190,8.0,-999.0,-999,-99.99,,,-99.99,,2013-06-01 07:22:00,
2013-06-01 02:32:00,61.0,-99.9,29.76,South,180,6.0,-999.0,-999,-99.99,,,-99.99,,2013-06-01 07:32:00,
2013-06-01 02:42:00,61.0,-99.9,29.75,South,180,3.0,-999.0,-999,-99.99,,,-99.99,,2013-06-01 07:42:00,
2013-06-01 02:52:00,61.0,-99.9,29.73,North,0,0.0,-999.0,-999,-99.99,,,-99.99,,2013-06-01 07:52:00,
2013-06-01 03:02:00,61.0,-99.9,29.73,North,0,0.0,-999.0,-999,-99.99,,,-99.99,,2013-06-01 08:02:00,
2013-06-01 03:11:00,61.0,-99.9,29.73,North,0,0.0,-999.0,-999,-99.99,,,-99.99,,2013-06-01 08:11:00,
2013-06-01 03:22:00,61.0,-99.9,29.73,North,0,0.0,-999.0,-999,-99.99,,,-99.99,,2013-06-01 08:22:00,
2013-06-01 03:32:00,61.0,-99.9,29.74,South,170,9.0,-999.0,-999,-99.99,,,-99.99,,2013-06-01 08:32:00,
2013-06-01 03:42:00,61.0,-99.9,29.76,South,170,10.0,-999.0,-999,-99.99,,,-99.99,,2013-06-01 08:42:00,
2013-06-01 03:52:00,61.0,-99.9,29.76,South,180,10.0,-999.0,-999,-99.99,,,-99.99,,2013-06-01 08:52:00,
2013-06-01 04:02:00,61.0,-99.9,29.76,South,180,10.0,-999.0,-999,-99.99,,,-99.99,,2013-06-01 09:02:00,
2013-06-01 04:12:00,61.0,-99.9,29.76,South,180,10.0,-999.0,-999,-99.99,,,-99.99,,2013-06-01 09:12:00,
2013-06-01 04:22:00,61.0,-99.9,29.75,South,180,7.0,-999.0,-999,-99.99,,,-99.99,,2013-06-01 09:22:00,
2013-06-01 04:33:00,61.0,-99.9,29.73,South,170,6.0,-999.0,-999,-99.99,,,-99.99,,2013-06-01 09:33:00,
2013-06-01 04:43:00,61.0,-99.9,29.72,SSE,160,3.0,-999.0,-999,-99.99,,,-99.99,,2013-06-01 09:43:00,
2013-06-01 04:53:00,61.0,-99.9,29.73,South,180,7.0,-999.0,-999,-99.99,,,-99.99,,2013-06-01 09:53:00,
2013-06-01 05:02:00,61.0,-99.9,29.73,South,180,7.0,-999.0,-999,-99.99,,,-99.99,,2013-06-01 10:02:00,
2013-06-01 05:13:00,61.0,-99.9,29.73,South,180,7.0,-999.0,-999,-99.99,,,-99.99,,2013-06-01 10:13:00,
2013-06-01 05:22:00,61.0,-99.9,29.73,South,180,7.0,-999.0,-999,-99.99,,,-99.99,,2013-06-01 10:22:00,
2013-06-01 05:33:00,61.0,-99.9,29.72,South,170,7.0,-999.0,-999,-99.99,,,-99.99,,2013-06-01 10:33:00,
2013-06-01 05:42:00,61.0,-99.9,29.72,South,170,7.0,-999.0,-999,-99.99,,,-99.99,,2013-06-01 10:42:00,
2013-06-01 05:53:00,61.0,-99.9,29.72,South,170,7.0,-999.0,-999,-99.99,,,-99.99,,2013-06-01 10:53:00,
2013-06-01 06:03:00,61.0,-99.9,29.72,South,170,7.0,-999.0,-999,-99.99,,,-99.99,,2013-06-01 11:03:00,
2013-06-01 06:11:00,61.0,-99.9,29.72,South,170,7.0,-999.0,-999,-99.99,,,-99.99,,2013-06-01 11:11:00,
2013-06-01 06:22:00,61.0,-99.9,29.76,South,180,10.0,-999.0,-999,-99.99,,,-99.99,,2013-06-01 11:22:00,
2013-06-01 06:33:00,61.0,-99.9,29.77,South,190,12.0,-999.0,-999,-99.99,,,-99.99,,2013-06-01 11:33:00,
2013-06-01 06:42:00,63.0,-99.9,29.77,South,190,16.0,-999.0,-999,-99.99,,,-99.99,,2013-06-01 11:42:00,
2013-06-01 06:52:00,63.0,-99.9,29.77,South,180,16.0,21.0,-999,-99.99,,,-99.99,,2013-06-01 11:52:00,
2013-06-01 07:01:00,63.0,-99.9,29.77,South,180,16.0,21.0,-999,-99.99,,,-99.99,,2013-06-01 12:01:00,
2013-06-01 07:12:00,63.0,-99.9,29.77,South,180,16.0,21.0,-999,-99.99,,,-99.99,,2013-06-01 12:12:00,
2013-06-01 07:22:00,63.0,-99.9,29.76,South,180,15.0,21.0,-999,-99.99,,,-99.99,,2013-06-01 12:22:00,
2013-06-01 07:32:00,63.0,63.0,29.76,South,190,13.0,20.0,100,-99.99,,,-99.99,,2013-06-01 12:32:00,
2013-06-01 07:42:00,63.0,63.0,29.76,SSW,200,14.0,-999.0,100,-99.99,,,-99.99,,2013-06-01 12:42:00,
2013-06-01 07:52:00,63.0,63.0,29.77,SSW,200,15.0,-999.0,100,-99.99,,,-99.99,,2013-06-01 12:52:00,
2013-06-01 08:01:00,63.0,63.0,29.77,SSW,200,15.0,-999.0,100,-99.99,,,-99.99,,2013-06-01 13:01:00,
2013-06-01 08:11:00,63.0,63.0,29.77,SSW,200,15.0,-999.0,100,-99.99,,,-99.99,,2013-06-01 13:11:00,
2013-06-01 08:22:00,64.0,64.0,29.78,South,190,10.0,-999.0,100,-99.99,,,-99.99,,2013-06-01 13:22:00,
2013-06-01 08:32:00,64.0,64.0,29.78,South,190,10.0,-999.0,100,-99.99,,,-99.99,,2013-06-01 13:32:00,
2013-06-01 08:42:00,64.0,64.0,29.78,South,190,10.0,-999.0,100,-99.99,,,-99.99,,2013-06-01 13:42:00,
2013-06-01 08:52:00,64.0,64.0,29.76,South,180,9.0,16.0,100,-99.99,,,-99.99,,2013-06-01 13:52:00,
2013-06-01 09:02:00,64.0,64.0,29.76,South,180,9.0,16.0,100,-99.99,,,-99.99,,2013-06-01 14:02:00,
2013-06-01 09:11:00,64.0,64.0,29.76,South,180,9.0,16.0,100,-99.99,,,-99.99,,2013-06-01 14:11:00,
2013-06-01 09:21:00,64.0,64.0,29.77,SW,220,8.0,-999.0,100,-99.99,,,-99.99,,2013-06-01 14:21:00,
2013-06-01 09:32:00,64.0,64.0,29.79,WSW,250,10.0,-999.0,100,-99.99,,,-99.99,,2013-06-01 14:32:00,
2013-06-01 09:42:00,66.0,66.0,29.78,WSW,240,9.0,-999.0,100,-99.99,,,-99.99,,2013-06-01 14:42:00,
2013-06-01 09:52:00,66.0,66.0,29.78,WSW,240,9.0,-999.0,100,-99.99,,,-99.99,,2013-06-01 14:52:00,
2013-06-01 10:02:00,66.0,66.0,29.78,WSW,240,9.0,-999.0,100,-99.99,,,-99.99,,2013-06-01 15:02:00,
2013-06-01 10:11:00,66.0,66.0,29.78,WSW,240,9.0,-999.0,100,-99.99,,,-99.99,,2013-06-01 15:11:00,
2013-06-01 10:21:00,66.0,66.0,29.77,WSW,250,13.0,-999.0,100,-99.99,,,-99.99,,2013-06-01 15:21:00,
2013-06-01 10:33:00,66.0,66.0,29.77,SW,230,12.0,18.0,100,-99.99,,,-99.99,,2013-06-01 15:33:00,
2013-06-01 10:43:00,68.0,66.0,29.76,WSW,240,14.0,-999.0,93,-99.99,,,-99.99,,2013-06-01 15:43:00,
2013-06-01 10:53:00,68.0,66.0,29.76,WSW,250,10.0,-999.0,93,-99.99,,,-99.99,,2013-06-01 15:53:00,
2013-06-01 11:03:00,68.0,66.0,29.76,WSW,250,10.0,-999.0,93,-99.99,,,-99.99,,2013-06-01 16:03:00,
2013-06-01 11:12:00,68.0,66.0,29.76,WSW,250,10.0,-999.0,93,-99.99,,,-99.99,,2013-06-01 16:12:00,
2013-06-01 11:23:00,68.0,66.0,29.76,WSW,250,10.0,-999.0,93,-99.99,,,-99.99,,2013-06-01 16:23:00,
2013-06-01 11:33:00,68.0,66.0,29.76,WSW,250,10.0,-999.0,93,-99.99,,,-99.99,,2013-06-01 16:33:00,
2013-06-01 12:43:00,70.0,64.0,29.77,WSW,250,8.0,-999.0,82,-99.99,,,-99.99,,2013-06-01 17:43:00,
2013-06-01 12:52:00,72.0,64.0,29.78,West,260,10.0,-999.0,78,-99.99,,,-99.99,,2013-06-01 17:52:00,
2013-06-01 13:01:00,72.0,64.0,29.78,West,260,10.0,-999.0,78,-99.99,,,-99.99,,2013-06-01 18:01:00,
2013-06-01 13:12:00,72.0,64.0,29.78,West,260,10.0,-999.0,78,-99.99,,,-99.99,,2013-06-01 18:12:00,
2013-06-01 13:21:00,73.0,64.0,29.78,SW,230,9.0,18.0,73,-99.99,,,-99.99,,2013-06-01 18:21:00,
2013-06-01 13:32:00,72.0,63.0,29.78,WSW,250,12.0,16.0,73,-99.99,,,-99.99,,2013-06-01 18:32:00,
2013-06-01 13:42:00,72.0,63.0,29.78,WSW,250,12.0,16.0,73,-99.99,,,-99.99,,2013-06-01 18:42:00,
2013-06-01 13:52:00,72.0,64.0,29.78,West,260,10.0,18.0,78,-99.99,,,-99.99,,2013-06-01 18:52:00,
2013-06-01 14:02:00,72.0,64.0,29.78,West,260,10.0,18.0,78,-99.99,,,-99.99,,2013-06-01 19:02:00,
2013-06-01 14:11:00,72.0,64.0,29.78,West,260,10.0,18.0,78,-99.99,,,-99.99,,2013-06-01 19:11:00,
2013-06-01 14:21:00,72.0,61.0,29.79,West,270,14.0,21.0,68,-99.99,,,-99.99,,2013-06-01 19:21:00,
2013-06-01 14:32:00,73.0,61.0,29.79,WSW,250,13.0,21.0,64,-99.99,,,-99.99,,2013-06-01 19:32:00,
2013-06-01 14:42:00,72.0,61.0,29.80,WSW,250,15.0,23.0,68,-99.99,,,-99.99,,2013-06-01 19:42:00,
2013-06-01 14:52:00,72.0,59.0,29.80,WSW,250,18.0,-999.0,64,-99.99,,,-99.99,,2013-06-01 19:52:00,
2013-06-01 15:01:00,72.0,59.0,29.80,WSW,250,18.0,-999.0,64,-99.99,,,-99.99,,2013-06-01 20:01:00,
2013-06-01 15:12:00,72.0,59.0,29.80,WSW,250,18.0,-999.0,64,-99.99,,,-99.99,,2013-06-01 20:12:00,
2013-06-01 15:21:00,72.0,57.0,29.81,WSW,250,14.0,21.0,60,-99.99,,,-99.99,,2013-06-01 20:21:00,
2013-06-01 15:32:00,72.0,57.0,29.81,West,260,15.0,23.0,60,-99.99,,,-99.99,,2013-06-01 20:32:00,
2013-06-01 15:42:00,72.0,57.0,29.81,West,260,13.0,20.0,60,-99.99,,,-99.99,,2013-06-01 20:42:00,
2013-06-01 15:52:00,72.0,57.0,29.82,WSW,250,20.0,23.0,60,-99.99,,,-99.99,,2013-06-01 20:52:00,
2013-06-01 16:01:00,72.0,57.0,29.82,WSW,250,20.0,23.0,60,-99.99,,,-99.99,,2013-06-01 21:01:00,
2013-06-01 16:11:00,72.0,57.0,29.82,WSW,250,20.0,23.0,60,-99.99,,,-99.99,,2013-06-01 21:11:00,
2013-06-01 16:21:00,72.0,57.0,29.82,West,260,20.0,23.0,60,-99.99,,,-99.99,,2013-06-01 21:21:00,
2013-06-01 16:33:00,72.0,57.0,29.82,West,260,20.0,23.0,60,-99.99,,,-99.99,,2013-06-01 21:33:00,
2013-06-01 16:43:00,72.0,57.0,29.82,WSW,250,22.0,27.0,60,-99.99,,,-99.99,,2013-06-01 21:43:00,
2013-06-01 16:53:00,72.0,57.0,29.83,West,270,13.0,20.0,60,-99.99,,,-99.99,,2013-06-01 21:53:00,
2013-06-01 17:03:00,72.0,57.0,29.83,West,270,13.0,20.0,60,-99.99,,,-99.99,,2013-06-01 22:03:00,
2013-06-01 17:12:00,72.0,57.0,29.83,West,270,13.0,20.0,60,-99.99,,,-99.99,,2013-06-01 22:12:00,
2013-06-01 17:23:00,70.0,55.0,29.83,West,260,16.0,25.0,60,-99.99,,,-99.99,,2013-06-01 22:23:00,
2013-06-01 17:33:00,70.0,55.0,29.83,West,260,14.0,18.0,60,-99.99,,,-99.99,,2013-06-01 22:33:00,
2013-06-01 17:42:00,70.0,57.0,29.84,West,260,14.0,18.0,64,-99.99,,,-99.99,,2013-06-01 22:42:00,
2013-06-01 17:53:00,70.0,57.0,29.84,WSW,250,14.0,20.0,64,-99.99,,,-99.99,,2013-06-01 22:53:00,
2013-06-01 18:02:00,70.0,57.0,29.84,WSW,250,14.0,20.0,64,-99.99,,,-99.99,,2013-06-01 23:02:00,
2013-06-01 18:11:00,70.0,57.0,29.84,WSW,250,14.0,20.0,64,-99.99,,,-99.99,,2013-06-01 23:11:00,
2013-06-01 18:21:00,68.0,55.0,29.84,West,260,17.0,23.0,64,-99.99,,,-99.99,,2013-06-01 23:21:00,
2013-06-01 18:32:00,68.0,57.0,29.84,West,270,12.0,20.0,68,-99.99,,,-99.99,,2013-06-01 23:32:00,
2013-06-01 18:42:00,68.0,57.0,29.84,West,270,12.0,20.0,68,-99.99,,,-99.99,,2013-06-01 23:42:00,
2013-06-01 18:52:00,68.0,57.0,29.84,West,270,13.0,-999.0,68,-99.99,,,-99.99,,2013-06-01 23:52:00,
2013-06-01 19:02:00,68.0,57.0,29.84,West,270,13.0,-999.0,68,-99.99,,,-99.99,,2013-06-02 00:02:00,
2013-06-01 19:11:00,68.0,57.0,29.84,West,270,13.0,-999.0,68,-99.99,,,-99.99,,2013-06-02 00:11:00,
2013-06-01 19:21:00,66.0,57.0,29.84,West,270,12.0,17.0,72,-99.99,,,-99.99,,2013-06-02 00:21:00,
2013-06-01 19:32:00,68.0,57.0,29.84,West,260,13.0,-999.0,68,-99.99,,,-99.99,,2013-06-02 00:32:00,
2013-06-01 19:42:00,66.0,55.0,29.84,West,260,16.0,21.0,68,-99.99,,,-99.99,,2013-06-02 00:42:00,
2013-06-01 19:52:00,66.0,57.0,29.85,West,270,14.0,24.0,72,-99.99,,,-99.99,,2013-06-02 00:52:00,
2013-06-01 20:01:00,66.0,57.0,29.85,West,270,14.0,24.0,72,-99.99,,,-99.99,,2013-06-02 01:01:00,
2013-06-01 20:11:00,66.0,57.0,29.85,West,270,14.0,24.0,72,-99.99,,,-99.99,,2013-06-02 01:11:00,
2013-06-01 20:21:00,64.0,57.0,29.85,West,270,12.0,18.0,77,-99.99,,,-99.99,,2013-06-02 01:21:00,
2013-06-01 20:32:00,64.0,57.0,29.86,West,280,10.0,-999.0,77,-99.99,,,-99.99,,2013-06-02 01:32:00,
2013-06-01 20:42:00,64.0,57.0,29.87,WNW,290,18.0,22.0,77,-99.99,,,-99.99,,2013-06-02 01:42:00,
2013-06-01 20:52:00,64.0,57.0,29.87,West,270,15.0,24.0,77,-99.99,,,-99.99,,2013-06-02 01:52:00,
2013-06-01 21:01:00,64.0,57.0,29.87,West,270,15.0,24.0,77,-99.99,,,-99.99,,2013-06-02 02:01:00,
2013-06-01 21:12:00,64.0,57.0,29.87,West,270,15.0,24.0,77,-99.99,,,-99.99,,2013-06-02 02:12:00,
2013-06-01 21:21:00,63.0,57.0,29.88,West,280,15.0,20.0,82,-99.99,,,-99.99,,2013-06-02 02:21:00,
2013-06-01 21:32:00,63.0,57.0,29.88,West,280,10.0,16.0,82,-99.99,,,-99.99,,2013-06-02 02:32:00,
2013-06-01 21:42:00,63.0,57.0,29.89,West,270,9.0,-999.0,82,-99.99,,,-99.99,,2013-06-02 02:42:00,
2013-06-01 21:52:00,63.0,57.0,29.89,West,280,13.0,-999.0,82,-99.99,,,-99.99,,2013-06-02 02:52:00,
2013-06-01 22:02:00,63.0,57.0,29.89,West,280,13.0,-999.0,82,-99.99,,,-99.99,,2013-06-02 03:02:00,
2013-06-01 22:11:00,63.0,57.0,29.89,West,280,13.0,-999.0,82,-99.99,,,-99.99,,2013-06-02 03:11:00,
2013-06-01 22:21:00,61.0,57.0,29.90,WNW,290,10.0,-999.0,87,-99.99,,,-99.99,,2013-06-02 03:21:00,
2013-06-01 22:33:00,61.0,57.0,29.91,WNW,290,14.0,22.0,87,-99.99,,,-99.99,,2013-06-02 03:33:00,
2013-06-01 22:43:00,61.0,55.0,29.91,WNW,290,15.0,22.0,82,-99.99,,,-99.99,,2013-06-02 03:43:00,
2013-06-01 22:53:00,61.0,55.0,29.92,WNW,290,15.0,24.0,82,-99.99,,,-99.99,,2013-06-02 03:53:00,
2013-06-01 23:02:00,61.0,55.0,29.92,WNW,290,15.0,24.0,82,-99.99,,,-99.99,,2013-06-02 04:02:00,
2013-06-01 23:13:00,61.0,55.0,29.92,WNW,290,15.0,24.0,82,-99.99,,,-99.99,,2013-06-02 04:13:00,
2013-06-01 23:23:00,61.0,55.0,29.92,WNW,290,10.0,-999.0,82,-99.99,,,-99.99,,2013-06-02 04:23:00,
2013-06-01 23:33:00,59.0,55.0,29.92,WNW,290,10.0,-999.0,87,-99.99,,,-99.99,,2013-06-02 04:33:00,
2013-06-01 23:42:00,59.0,55.0,29.92,WNW,290,10.0,16.0,87,-99.99,,,-99.99,,2013-06-02 04:42:00,
2013-06-01 23:53:00,59.0,55.0,29.93,WNW,290,10.0,18.0,87,-99.99,,,-99.99,,2013-06-02 04:53:00,